Time;durP1;ratioP1;P1;durP2;ratioP2;P2;SDS_P1;SDS_P2;PMS_P1;PMS_P2;Temp;Humidity;BMP_temperature;BMP_pressure;BME280_temperature;BME280_humidity;BME280_pressure;Samples;Min_cycle;Max_cycle;Signal;HPM_P1;HPM_P2
2022/05/24 00:01:30;;;;;;;3.40;2.10;;;;;;;23.19;39.01;100538.31;106536;1287;60541;-83
2022/05/24 00:04:03;;;;;;;3.80;2.40;;;;;;;23.19;38.97;100539.96;106415;1286;60430;-84
2022/05/24 00:06:30;;;;;;;4.20;2.50;;;;;;;23.19;39.02;100536.19;106558;1286;60376;-87
2022/05/24 00:08:56;;;;;;;4.00;2.20;;;;;;;23.18;39.06;100529.08;106458;1286;60372;-83
2022/05/24 00:11:22;;;;;;;6.10;2.40;;;;;;;23.19;39.13;100524.90;106526;1286;60470;-86
2022/05/24 00:13:47;;;;;;;4.30;2.30;;;;;;;23.18;39.11;100524.73;106388;1289;60442;-87
2022/05/24 00:16:16;;;;;;;3.90;2.30;;;;;;;23.18;39.26;100528.87;106453;1286;60566;-83
2022/05/24 00:18:41;;;;;;;4.00;2.40;;;;;;;23.18;39.14;100528.34;106572;1286;60559;-84
2022/05/24 00:21:10;;;;;;;3.80;2.20;;;;;;;23.18;39.24;100529.08;106574;1285;60517;-84
2022/05/24 00:23:36;;;;;;;3.80;2.10;;;;;;;23.18;39.23;100526.96;106809;1286;75454;-84
2022/05/24 00:26:04;;;;;;;5.80;2.50;;;;;;;23.17;39.16;100527.70;106385;1286;60605;-83
2022/05/24 00:28:33;;;;;;;3.50;2.20;;;;;;;23.18;39.19;100530.91;106556;1286;61461;-85
2022/05/24 00:31:00;;;;;;;3.70;2.20;;;;;;;23.18;39.29;100530.38;106569;1287;73946;-85
2022/05/24 00:33:28;;;;;;;4.30;2.30;;;;;;;23.17;39.27;100529.68;106615;1286;60409;-90
2022/05/24 00:35:57;;;;;;;3.80;2.30;;;;;;;23.18;39.23;100530.70;106544;1286;60473;-85
2022/05/24 00:38:36;;;;;;;4.50;2.30;;;;;;;23.17;39.27;100532.73;106438;1286;60473;-84
2022/05/24 00:41:26;;;;;;;4.50;2.60;;;;;;;23.17;39.32;100536.36;106450;1286;73543;-84
2022/05/24 00:43:57;;;;;;;3.80;2.30;;;;;;;23.16;39.40;100532.45;106442;1287;73651;-89
2022/05/24 00:46:58;;;;;;;4.30;2.40;;;;;;;23.17;39.39;100533.50;106836;1285;60460;-83
2022/05/24 00:49:31;;;;;;;4.80;2.60;;;;;;;23.16;39.43;100529.96;106329;1286;60418;-83
2022/05/24 00:52:10;;;;;;;5.30;2.30;;;;;;;23.16;39.45;100526.92;106565;1286;73888;-86
2022/05/24 00:54:36;;;;;;;3.80;2.40;;;;;;;23.16;39.45;100525.85;106327;1288;75026;-86
2022/05/24 00:57:06;;;;;;;4.00;2.20;;;;;;;23.16;39.40;100524.45;106588;1286;60482;-83
2022/05/24 00:59:45;;;;;;;3.90;2.30;;;;;;;23.16;39.32;100519.74;106641;1286;60638;-82
2022/05/24 01:02:10;;;;;;;4.30;2.30;;;;;;;23.16;39.35;100517.63;106804;1286;71857;-86
2022/05/24 01:04:39;;;;;;;6.10;2.50;;;;;;;23.15;39.42;100517.11;106466;1286;74216;-87
2022/05/24 01:07:08;;;;;;;4.30;2.10;;;;;;;23.15;39.47;100521.07;106349;1286;60462;-82
2022/05/24 01:10:11;;;;;;;3.60;2.20;;;;;;;23.15;39.39;100520.34;106490;1287;60284;-87
2022/05/24 01:12:44;;;;;;;4.60;2.40;;;;;;;23.15;39.43;100519.52;106055;1292;73870;-86
2022/05/24 01:15:10;;;;;;;3.50;2.30;;;;;;;23.15;39.43;100513.38;105836;1292;73786;-85
2022/05/24 01:17:36;;;;;;;5.50;2.10;;;;;;;23.14;39.42;100514.12;106029;1292;60444;-86
2022/05/24 01:20:03;;;;;;;4.50;2.40;;;;;;;23.14;39.45;100515.03;105802;1292;60387;-84
2022/05/24 01:23:13;;;;;;;3.80;2.20;;;;;;;23.14;39.48;100515.57;105801;1292;73049;-86
2022/05/24 01:25:56;;;;;;;5.20;2.40;;;;;;;23.14;39.40;100511.86;105857;1292;74865;-84
2022/05/24 01:28:37;;;;;;;4.30;2.40;;;;;;;23.13;39.39;100508.66;106011;1292;60475;-87
2022/05/24 01:31:06;;;;;;;4.30;2.20;;;;;;;23.13;39.45;100506.15;106056;1292;60466;-83
2022/05/24 01:36:29;;;;;;;4.10;2.10;;;;;;;23.13;39.44;100507.81;105958;1292;74870;-86
2022/05/24 01:39:00;;;;;;;3.80;2.10;;;;;;;23.13;39.32;100507.09;105824;1292;60604;-88
2022/05/24 01:41:42;;;;;;;5.40;2.20;;;;;;;23.13;39.38;100506.00;105959;1292;61367;-89
2022/05/24 01:44:08;;;;;;;4.30;2.50;;;;;;;23.13;39.34;100505.84;105938;1293;72673;-86
2022/05/24 01:46:37;;;;;;;3.10;1.90;;;;;;;23.13;39.44;100507.64;106175;1286;60477;-85
2022/05/24 01:49:09;;;;;;;;;;;;;;;23.13;39.28;100504.23;106502;1286;60380;-90
2022/05/24 01:51:48;;;;;;;3.90;2.10;;;;;;;23.10;39.28;100505.70;106567;1286;60678;-85
2022/05/24 01:54:19;;;;;;;;;;;;;;;23.10;39.36;100507.23;106495;1286;72939;-86
2022/05/24 01:56:55;;;;;;;3.80;2.20;;;;;;;23.08;39.42;100507.79;106646;1286;75138;-84
2022/05/24 01:59:20;;;;;;;4.10;2.40;;;;;;;23.09;39.38;100503.60;106604;1286;60501;-83
2022/05/24 02:01:57;;;;;;;4.60;2.30;;;;;;;23.09;39.31;100501.98;106466;1287;60400;-84
2022/05/24 02:04:24;;;;;;;5.30;2.40;;;;;;;23.09;39.24;100502.89;106477;1286;71461;-84
2022/05/24 02:07:07;;;;;;;4.40;2.40;;;;;;;23.08;39.25;100503.45;106407;1287;73904;-84
2022/05/24 02:09:36;;;;;;;4.70;2.30;;;;;;;23.08;39.26;100502.03;106410;1289;60342;-84
2022/05/24 02:12:16;;;;;;;3.90;2.30;;;;;;;23.09;39.24;100506.31;106382;1287;61517;-81
2022/05/24 02:14:49;;;;;;;4.20;2.10;;;;;;;23.08;39.23;100510.09;106549;1286;73642;-84
2022/05/24 02:17:24;;;;;;;4.00;2.20;;;;;;;23.09;39.24;100511.14;106443;1286;73879;-84
2022/05/24 02:19:58;;;;;;;4.90;2.40;;;;;;;23.09;39.23;100512.73;106576;1286;60346;-84
2022/05/24 02:22:27;;;;;;;3.60;2.30;;;;;;;23.09;39.16;100510.99;106623;1286;60453;-84
2022/05/24 02:24:59;;;;;;;3.30;2.10;;;;;;;23.09;39.20;100516.70;106355;1286;72910;-84
2022/05/24 02:27:27;;;;;;;4.10;2.20;;;;;;;23.09;39.18;100516.52;106748;1287;74880;-83
2022/05/24 02:29:56;;;;;;;4.90;2.50;;;;;;;23.08;39.30;100512.26;106428;1287;60339;-85
2022/05/24 02:32:22;;;;;;;4.40;2.20;;;;;;;23.08;39.22;100511.36;106513;1287;60445;-83
2022/05/24 02:34:50;;;;;;;5.70;2.30;;;;;;;23.09;39.16;100507.03;106409;1287;60495;-85
2022/05/24 02:37:25;;;;;;;3.80;2.20;;;;;;;23.09;39.05;100507.19;106437;1286;74456;-85
2022/05/24 02:42:40;;;;;;;3.70;2.10;;;;;;;23.09;39.08;100517.45;106638;1287;61140;-85
2022/05/24 02:45:06;;;;;;;4.30;2.10;;;;;;;23.08;39.12;100521.05;106352;1286;72634;-82
2022/05/24 02:47:36;;;;;;;3.90;2.10;;;;;;;23.08;39.15;100522.48;106626;1286;60483;-86
2022/05/24 02:50:04;;;;;;;3.20;2.10;;;;;;;23.08;39.08;100520.88;106587;1287;60324;-84
2022/05/24 02:52:34;;;;;;;3.70;2.10;;;;;;;23.09;39.07;100521.39;106562;1287;60558;-87
2022/05/24 02:55:07;;;;;;;3.90;2.30;;;;;;;23.08;39.04;100522.86;106566;1287;73801;-85
2022/05/24 02:57:35;;;;;;;3.10;2.00;;;;;;;23.08;39.03;100525.71;106549;1287;75386;-85
2022/05/24 03:00:03;;;;;;;5.00;2.00;;;;;;;23.08;38.99;100529.32;106397;1288;60861;-85
2022/05/24 03:02:29;;;;;;;4.00;2.20;;;;;;;23.08;39.05;100532.91;106609;1286;61316;-84
2022/05/24 03:05:00;;;;;;;3.70;2.20;;;;;;;23.08;39.00;100529.13;106586;1287;61047;-85
2022/05/24 03:10:10;;;;;;;4.40;2.20;;;;;;;23.08;38.86;100530.06;106634;1287;60966;-88
2022/05/24 03:15:33;;;;;;;3.50;2.20;;;;;;;23.04;38.78;100531.33;106726;1285;72756;-81
2022/05/24 03:18:02;;;;;;;6.30;2.40;;;;;;;23.02;38.69;100535.05;106777;1286;74385;-85
2022/05/24 03:20:33;;;;;;;5.10;2.10;;;;;;;23.00;38.48;100535.91;106436;1287;61299;-85
2022/05/24 03:23:02;;;;;;;5.00;2.50;;;;;;;22.96;38.38;100535.76;106495;1287;60559;-86
2022/05/24 03:25:28;;;;;;;5.60;2.50;;;;;;;22.91;38.17;100535.96;106613;1285;73726;-84
2022/05/24 03:28:01;;;;;;;3.90;2.10;;;;;;;22.89;38.21;100538.48;106470;1287;60453;-83
2022/05/24 03:30:27;;;;;;;5.00;2.20;;;;;;;22.86;38.11;100537.80;106489;1287;61245;-84
2022/05/24 03:32:53;;;;;;;5.20;2.40;;;;;;;22.83;37.86;100537.52;106701;1287;60497;-83
2022/05/24 03:35:18;;;;;;;5.50;2.60;;;;;;;22.76;37.80;100538.13;106423;1287;60498;-87
2022/05/24 03:37:44;;;;;;;4.30;2.40;;;;;;;22.72;37.78;100538.62;106401;1286;60968;-84
2022/05/24 03:40:11;;;;;;;6.10;2.70;;;;;;;22.70;37.77;100542.02;106401;1287;62062;-85
2022/05/24 03:42:37;;;;;;;4.20;2.10;;;;;;;22.68;37.61;100542.75;106437;1287;60552;-83
2022/05/24 03:45:04;;;;;;;4.10;2.20;;;;;;;22.67;37.63;100546.60;106327;1287;60325;-83
2022/05/24 03:47:39;;;;;;;4.20;2.30;;;;;;;22.63;37.58;100548.00;106540;1286;60409;-83
2022/05/24 03:50:05;;;;;;;4.40;2.20;;;;;;;22.61;37.57;100553.00;106613;1286;61159;-84
2022/05/24 03:52:31;;;;;;;4.20;2.10;;;;;;;22.61;37.58;100556.91;106060;1287;61326;-86
2022/05/24 03:54:57;;;;;;;7.00;2.20;;;;;;;22.62;37.46;100558.09;106359;1286;60459;-85
2022/05/24 04:00:10;;;;;;;3.40;2.50;;;;;;;22.64;37.50;100553.60;106564;1286;61622;-85
2022/05/24 04:02:36;;;;;;;4.70;2.20;;;;;;;22.63;37.33;100551.87;106541;1287;60526;-83
2022/05/24 04:05:02;;;;;;;5.60;2.40;;;;;;;22.63;37.24;100554.75;106097;1287;59832;-83
2022/05/24 04:07:28;;;;;;;8.10;2.30;;;;;;;22.63;37.32;100558.92;106059;1286;60495;-83
2022/05/24 04:09:53;;;;;;;8.10;2.50;;;;;;;22.63;37.23;100558.74;105958;1286;60482;-83
2022/05/24 04:12:19;;;;;;;12.90;2.90;;;;;;;22.60;37.18;100561.85;106229;1287;60514;-82
2022/05/24 04:14:44;;;;;;;10.20;2.50;;;;;;;22.46;37.14;100565.10;106466;1286;60460;-85
2022/05/24 04:17:10;;;;;;;4.60;2.20;;;;;;;22.37;37.31;100566.73;106297;1287;72704;-84
2022/05/24 04:19:36;;;;;;;11.10;2.70;;;;;;;22.39;37.38;100563.72;106235;1287;60437;-85
2022/05/24 04:22:02;;;;;;;22.40;3.20;;;;;;;22.43;37.41;100568.20;106183;1287;60429;-83
2022/05/24 04:24:27;;;;;;;19.00;3.10;;;;;;;22.48;37.41;100567.64;106319;1287;61062;-82
2022/05/24 04:26:53;;;;;;;17.40;3.10;;;;;;;22.52;37.54;100572.89;106290;1286;59426;-81
2022/05/24 04:29:18;;;;;;;10.90;2.80;;;;;;;22.56;37.45;100574.13;106115;1286;62254;-83
2022/05/24 04:31:44;;;;;;;11.70;2.70;;;;;;;22.60;37.43;100574.58;106154;1286;73666;-84
2022/05/24 04:34:10;;;;;;;12.80;2.70;;;;;;;22.63;37.41;100573.27;106050;1286;60544;-82
2022/05/24 04:36:36;;;;;;;7.20;2.70;;;;;;;22.65;37.32;100576.33;105927;1286;60465;-83
2022/05/24 04:39:01;;;;;;;12.20;2.80;;;;;;;22.62;37.21;100575.30;106092;1286;60416;-83
2022/05/24 04:44:11;;;;;;;7.40;2.50;;;;;;;22.55;37.33;100577.15;106090;1286;61257;-81
2022/05/24 04:49:22;;;;;;;12.00;2.70;;;;;;;22.50;37.23;100578.96;105924;1287;72607;-82
2022/05/24 04:51:47;;;;;;;13.00;2.50;;;;;;;22.45;37.14;100573.07;106037;1287;60373;-81
2022/05/24 04:54:13;;;;;;;7.20;2.60;;;;;;;22.37;37.18;100572.98;105786;1286;59389;-82
2022/05/24 04:56:39;;;;;;;8.50;2.70;;;;;;;22.30;37.14;100573.94;105752;1287;60504;-82
2022/05/24 04:59:04;;;;;;;8.40;2.80;;;;;;;22.22;37.24;100577.04;105689;1286;60453;-82
2022/05/24 05:01:30;;;;;;;6.20;2.50;;;;;;;22.14;37.20;100582.89;105846;1286;60459;-82
2022/05/24 05:03:55;;;;;;;5.30;2.60;;;;;;;22.02;37.33;100580.10;105674;1287;73968;-81
2022/05/24 05:06:21;;;;;;;7.50;2.70;;;;;;;21.95;37.31;100583.63;105736;1286;61678;-81
2022/05/24 05:08:47;;;;;;;10.90;2.70;;;;;;;21.89;37.58;100583.41;105666;1286;61065;-80
2022/05/24 05:11:12;;;;;;;4.60;2.30;;;;;;;21.88;37.65;100582.96;105963;1287;60484;-82
2022/05/24 05:13:38;;;;;;;6.00;2.60;;;;;;;21.96;37.70;100582.14;105988;1287;60443;-81
2022/05/24 05:16:04;;;;;;;7.70;2.80;;;;;;;22.06;37.58;100590.14;105953;1286;60629;-81
2022/05/24 05:18:29;;;;;;;5.40;2.30;;;;;;;22.15;37.68;100593.40;105881;1287;60596;-81
2022/05/24 05:20:55;;;;;;;10.60;2.60;;;;;;;22.24;37.94;100598.40;106007;1287;60551;-82
2022/05/24 05:23:21;;;;;;;7.20;2.50;;;;;;;22.26;37.71;100592.29;105999;1286;60633;-81
2022/05/24 05:25:49;;;;;;;6.90;2.70;;;;;;;22.26;37.63;100589.99;105881;1286;60536;-83
2022/05/24 05:28:15;;;;;;;8.00;2.30;;;;;;;22.30;37.55;100587.33;105774;1286;60534;-82
2022/05/24 05:33:25;;;;;;;3.50;2.10;;;;;;;22.45;37.78;100592.28;105970;1286;73957;-82
2022/05/24 05:35:51;;;;;;;5.00;2.10;;;;;;;22.51;37.97;100589.31;106140;1286;60506;-81
2022/05/24 05:38:17;;;;;;;8.40;2.50;;;;;;;22.57;37.76;100588.44;106007;1286;60424;-82
2022/05/24 05:40:42;;;;;;;5.70;2.30;;;;;;;22.62;37.73;100585.52;106097;1286;60647;-82
2022/05/24 05:43:08;;;;;;;7.60;2.50;;;;;;;22.68;37.88;100593.69;105922;1286;60582;-82
2022/05/24 05:45:34;;;;;;;6.90;2.50;;;;;;;22.72;37.81;100588.44;106207;1285;60610;-81
2022/05/24 05:47:59;;;;;;;4.70;2.20;;;;;;;22.76;37.74;100592.23;105842;1286;74975;-80
2022/05/24 05:50:25;;;;;;;5.30;2.50;;;;;;;22.80;37.84;100590.41;105736;1286;60460;-82
2022/05/24 05:52:50;;;;;;;4.40;2.50;;;;;;;22.77;37.59;100586.27;105569;1286;60740;-82
2022/05/24 05:55:19;;;;;;;15.60;2.60;;;;;;;22.74;37.49;100585.24;105579;1286;60494;-81
2022/05/24 05:57:45;;;;;;;7.60;2.50;;;;;;;22.66;37.37;100583.64;106367;1286;60434;-81
2022/05/24 06:00:11;;;;;;;7.70;2.30;;;;;;;22.52;37.33;100587.08;105795;1286;60521;-81
2022/05/24 06:02:37;;;;;;;5.40;2.10;;;;;;;22.47;37.21;100590.00;105652;1287;60387;-82
2022/05/24 06:05:03;;;;;;;7.40;2.30;;;;;;;22.34;37.12;100590.07;105471;1286;60650;-81
2022/05/24 06:07:29;;;;;;;7.40;1.90;;;;;;;22.27;37.08;100594.52;105765;1285;60367;-80
2022/05/24 06:09:55;;;;;;;6.70;2.10;;;;;;;22.24;37.06;100593.58;105643;1287;60598;-80
2022/05/24 06:12:21;;;;;;;6.00;2.30;;;;;;;22.25;37.03;100595.06;105809;1287;60385;-80
2022/05/24 06:14:46;;;;;;;4.70;2.00;;;;;;;22.28;37.09;100592.52;105133;1286;845947;-82
2022/05/24 06:17:12;;;;;;;8.70;2.30;;;;;;;22.33;37.13;100595.48;106038;1286;60481;-79
2022/05/24 06:19:37;;;;;;;4.50;1.90;;;;;;;22.40;37.13;100598.44;105747;1286;60604;-81
2022/05/24 06:22:03;;;;;;;5.30;2.00;;;;;;;22.47;37.18;100596.27;105971;1286;59322;-81
2022/05/24 06:24:29;;;;;;;6.30;2.30;;;;;;;22.52;37.08;100591.52;105901;1285;60481;-81
2022/05/24 06:26:56;;;;;;;3.20;1.90;;;;;;;22.57;37.12;100593.27;105632;1286;60571;-81
2022/05/24 06:29:22;;;;;;;5.10;2.10;;;;;;;22.62;37.10;100591.30;105733;1286;60325;-81
2022/05/24 06:31:48;;;;;;;5.70;2.20;;;;;;;22.67;36.97;100595.52;105864;1286;60491;-81
2022/05/24 06:34:14;;;;;;;7.30;2.20;;;;;;;22.71;36.99;100591.24;105765;1286;60956;-82
2022/05/24 06:36:40;;;;;;;4.80;2.10;;;;;;;22.75;37.12;100578.70;105690;1286;60393;-82
2022/05/24 06:39:06;;;;;;;5.70;2.20;;;;;;;22.80;37.06;100578.36;105750;1287;60829;-82
2022/05/24 06:41:31;;;;;;;3.70;2.10;;;;;;;22.83;37.00;100577.20;106075;1285;60486;-81
2022/05/24 06:43:57;;;;;;;4.00;2.20;;;;;;;22.86;37.01;100586.09;106022;1286;60452;-81
2022/05/24 06:46:23;;;;;;;7.70;2.00;;;;;;;22.89;37.07;100588.70;105766;1287;60639;-81
2022/05/24 06:48:50;;;;;;;8.10;2.30;;;;;;;22.91;36.86;100590.89;105970;1286;60443;-80
2022/05/24 06:51:20;;;;;;;11.50;2.00;;;;;;;22.82;36.59;100584.83;105961;1286;73998;-83
2022/05/24 06:53:46;;;;;;;6.40;2.10;;;;;;;22.71;36.80;100587.88;106888;1287;75148;-82
2022/05/24 06:56:12;;;;;;;11.00;2.60;;;;;;;22.68;36.78;100592.77;106891;1287;60421;-81
2022/05/24 06:58:37;;;;;;;11.40;2.40;;;;;;;22.62;36.84;100594.48;105981;1286;60593;-82
2022/05/24 07:03:56;;;;;;;6.30;2.40;;;;;;;22.45;36.70;100590.83;106897;1286;74938;-82
2022/05/24 07:06:21;;;;;;;9.50;2.60;;;;;;;22.45;36.92;100587.06;107364;1285;58579;-82
2022/05/24 07:08:47;;;;;;;9.10;2.30;;;;;;;22.48;36.76;100591.35;107244;1286;58481;-81
2022/05/24 07:11:13;;;;;;;7.60;2.30;;;;;;;22.45;36.78;100594.65;107221;1286;58766;-81
2022/05/24 07:13:39;;;;;;;7.60;2.00;;;;;;;22.47;36.89;100593.88;107284;1285;58351;-82
2022/05/24 07:16:08;;;;;;;9.00;2.20;;;;;;;22.52;37.04;100593.54;106714;1285;60415;-81
2022/05/24 07:18:34;;;;;;;4.40;1.80;;;;;;;22.46;36.73;100587.50;105612;1286;60623;-82
2022/05/24 07:21:00;;;;;;;5.90;2.10;;;;;;;22.47;36.88;100587.26;105458;1287;60342;-81
2022/05/24 07:23:25;;;;;;;8.90;2.50;;;;;;;22.51;36.76;100580.88;106041;1285;60464;-80
2022/05/24 07:25:51;;;;;;;8.90;2.20;;;;;;;22.58;37.02;100578.86;105814;1286;61265;-82
2022/05/24 07:28:17;;;;;;;8.70;2.30;;;;;;;22.62;37.12;100584.26;105803;1286;60351;-81
2022/05/24 07:30:44;;;;;;;5.90;1.90;;;;;;;22.63;37.02;100574.00;106344;1286;61376;-81
2022/05/24 07:33:10;;;;;;;6.80;2.30;;;;;;;22.67;37.12;100576.89;105568;1287;60489;-81
2022/05/24 07:35:36;;;;;;;7.40;2.00;;;;;;;22.71;37.15;100576.36;106272;1286;60330;-81
2022/05/24 07:38:01;;;;;;;8.30;2.40;;;;;;;22.74;37.15;100577.94;105797;1286;60568;-81
2022/05/24 07:45:58;;;;;;;7.70;2.10;;;;;;;22.82;37.08;100568.14;105725;1286;74970;-81
2022/05/24 07:48:24;;;;;;;5.00;2.00;;;;;;;22.84;36.88;100571.33;105656;1286;60622;-81
2022/05/24 07:50:50;;;;;;;7.80;2.00;;;;;;;22.85;37.04;100570.38;105607;1286;60461;-80
2022/05/24 07:53:16;;;;;;;5.90;1.90;;;;;;;22.86;36.98;100571.57;105337;1286;60606;-82
2022/05/24 07:55:42;;;;;;;14.10;3.20;;;;;;;22.78;36.83;100571.47;105340;1285;60577;-82
2022/05/24 07:58:08;;;;;;;8.20;2.10;;;;;;;22.70;36.62;100570.54;105327;1286;60620;-80
2022/05/24 08:00:35;;;;;;;6.80;2.10;;;;;;;22.65;36.95;100570.60;105690;1286;60462;-81
2022/05/24 08:03:01;;;;;;;8.60;1.90;;;;;;;22.60;36.73;100567.91;107166;1286;58649;-81
2022/05/24 08:05:26;;;;;;;4.60;2.10;;;;;;;22.62;36.93;100573.86;107319;1285;58707;-80
2022/05/24 08:07:54;;;;;;;5.80;1.80;;;;;;;22.61;36.81;100569.65;107008;1285;58333;-81
2022/05/24 08:10:20;;;;;;;5.90;2.10;;;;;;;22.53;36.65;100569.23;107288;1285;59172;-81
2022/05/24 08:12:45;;;;;;;6.80;2.50;;;;;;;22.54;36.68;100572.89;107285;1286;58215;-80
2022/05/24 08:15:11;;;;;;;11.80;2.50;;;;;;;22.62;36.98;100576.81;107475;1284;59163;-81
2022/05/24 08:17:37;;;;;;;6.70;2.00;;;;;;;22.69;37.30;100577.77;107030;1285;74442;-81
2022/05/24 08:20:04;;;;;;;4.30;1.70;;;;;;;22.75;37.49;100575.16;107227;1286;58644;-81
2022/05/24 08:22:29;;;;;;;3.90;1.80;;;;;;;22.79;37.39;100569.06;107235;1286;58565;-81
2022/05/24 08:24:55;;;;;;;3.90;1.90;;;;;;;22.82;37.21;100564.23;107088;1286;58761;-81
2022/05/24 08:27:21;;;;;;;4.60;1.70;;;;;;;22.85;36.97;100563.42;107299;1285;58771;-82
2022/05/24 08:29:46;;;;;;;6.60;1.90;;;;;;;22.88;36.91;100560.41;106645;1286;58964;-84
2022/05/24 08:32:12;;;;;;;6.70;2.00;;;;;;;22.91;36.85;100560.69;105866;1286;60512;-81
2022/05/24 08:34:39;;;;;;;7.90;1.90;;;;;;;22.93;36.84;100560.42;105895;1286;61346;-80
2022/05/24 08:37:05;;;;;;;4.50;1.90;;;;;;;22.88;36.50;100560.41;105836;1285;72810;-81
2022/05/24 08:39:31;;;;;;;6.10;1.80;;;;;;;22.82;36.22;100555.02;107337;1286;73865;-81
2022/05/24 08:42:10;;;;;;;3.20;1.80;;;;;;;22.78;36.19;100559.86;106391;1286;60558;-81
2022/05/24 08:50:15;;;;;;;10.70;2.20;;;;;;;22.91;36.75;100560.73;105694;1286;74793;-83
2022/05/24 08:52:47;;;;;;;14.10;2.30;;;;;;;22.91;36.67;100566.44;105846;1286;60463;-83
2022/05/24 08:55:13;;;;;;;11.30;1.90;;;;;;;22.88;36.50;100565.81;107420;1285;60323;-83
2022/05/24 08:57:44;;;;;;;5.70;2.00;;;;;;;22.82;36.24;100558.47;107235;1286;58084;-84
2022/05/24 09:00:13;;;;;;;7.00;2.20;;;;;;;22.74;36.03;100558.69;107347;1284;73787;-84
2022/05/24 09:02:42;;;;;;;7.00;2.20;;;;;;;22.76;36.22;100566.30;107117;1286;61264;-84
2022/05/24 09:05:16;;;;;;;7.50;2.00;;;;;;;22.77;35.97;100568.91;107179;1285;61449;-82
2022/05/24 09:08:04;;;;;;;4.70;2.10;;;;;;;22.76;36.00;100564.25;107097;1285;73779;-84
2022/05/24 09:10:45;;;;;;;7.50;2.20;;;;;;;22.73;35.84;100561.83;107026;1286;74204;-83
2022/05/24 09:13:36;;;;;;;7.30;1.90;;;;;;;22.70;35.79;100563.71;107210;1284;61670;-83
2022/05/24 09:16:11;;;;;;;7.70;2.00;;;;;;;22.71;35.77;100561.85;107420;1285;60914;-82
2022/05/24 09:18:43;;;;;;;7.00;2.00;;;;;;;22.73;35.87;100556.61;107428;1285;72678;-83
2022/05/24 09:21:29;;;;;;;7.80;1.90;;;;;;;22.77;35.72;100561.70;107252;1285;74828;-83
2022/05/24 09:24:01;;;;;;;9.60;2.10;;;;;;;22.79;35.86;100557.21;107259;1287;61163;-83
2022/05/24 09:26:27;;;;;;;6.70;2.10;;;;;;;22.82;35.83;100561.67;107518;1285;60358;-83
2022/05/24 09:29:08;;;;;;;7.30;2.00;;;;;;;22.86;35.90;100568.33;106835;1286;59260;-83
2022/05/24 09:31:39;;;;;;;8.80;2.50;;;;;;;22.91;35.95;100573.66;107251;1286;75287;-84
2022/05/24 09:34:27;;;;;;;8.60;2.30;;;;;;;22.93;36.07;100571.89;107449;1284;60372;-83
2022/05/24 09:37:06;;;;;;;7.80;2.10;;;;;;;22.95;35.94;100569.36;107240;1286;59153;-83
2022/05/24 09:39:42;;;;;;;7.50;1.90;;;;;;;22.98;36.10;100577.77;107359;1285;72797;-82
2022/05/24 09:42:12;;;;;;;12.20;2.30;;;;;;;23.00;36.04;100577.91;107239;1286;73839;-82
2022/05/24 09:45:01;;;;;;;7.40;2.20;;;;;;;23.02;36.10;100575.27;107373;1285;60932;-82
2022/05/24 09:47:31;;;;;;;4.70;1.90;;;;;;;23.05;36.34;100579.27;106951;1287;59571;-83
2022/05/24 09:50:22;;;;;;;8.40;2.30;;;;;;;23.08;36.33;100574.72;107369;1285;72754;-84
2022/05/24 09:53:04;;;;;;;9.90;2.30;;;;;;;23.10;36.30;100574.58;107001;1285;73731;-84
2022/05/24 09:55:38;;;;;;;8.10;2.20;;;;;;;23.08;36.25;100577.83;107160;1286;61519;-83
2022/05/24 09:58:22;;;;;;;10.10;2.50;;;;;;;23.07;36.27;100583.46;107299;1285;61619;-83
2022/05/24 10:01:08;;;;;;;8.60;2.30;;;;;;;23.08;36.32;100581.61;107391;1284;72638;-83
2022/05/24 10:03:38;;;;;;;6.90;2.00;;;;;;;23.08;36.29;100574.07;107402;1284;74950;-82
2022/05/24 10:06:33;;;;;;;7.10;2.20;;;;;;;23.07;36.31;100571.98;107139;1286;60365;-82
2022/05/24 10:09:19;;;;;;;7.80;1.90;;;;;;;23.06;36.19;100570.25;106524;1291;60121;-84
2022/05/24 10:12:01;;;;;;;16.50;2.30;;;;;;;23.05;36.12;100569.95;106549;1292;72904;-82
2022/05/24 10:14:52;;;;;;;5.30;2.00;;;;;;;23.07;36.42;100566.02;106528;1291;75116;-83
2022/05/24 10:17:26;;;;;;;7.30;1.80;;;;;;;23.09;36.39;100557.05;106510;1292;59776;-83
2022/05/24 10:20:37;;;;;;;4.60;2.10;;;;;;;23.13;36.67;100553.21;106802;1291;60915;-83
2022/05/24 10:23:41;;;;;;;8.10;2.20;;;;;;;23.14;36.54;100562.98;106134;1297;72629;-83
2022/05/24 10:26:24;;;;;;;8.60;2.00;;;;;;;23.14;36.65;100562.10;106085;1297;73943;-82
2022/05/24 10:28:53;;;;;;;7.30;2.30;;;;;;;23.15;36.67;100552.50;106053;1297;59229;-84
2022/05/24 10:31:21;;;;;;;11.70;2.30;;;;;;;23.16;36.60;100547.56;106152;1297;60322;-83
2022/05/24 10:39:41;;;;;;;15.00;3.10;;;;;;;23.22;36.93;100557.25;104675;1298;61769;-83
2022/05/24 10:42:29;;;;;;;15.00;2.70;;;;;;;23.25;37.18;100562.77;104800;1297;61585;-83
2022/05/24 10:45:13;;;;;;;16.50;2.40;;;;;;;23.27;37.59;100559.01;104735;1292;72842;-82
2022/05/24 10:47:43;;;;;;;8.60;2.00;;;;;;;23.29;37.86;100560.86;105139;1292;74367;-83
2022/05/24 10:50:11;;;;;;;13.80;2.30;;;;;;;23.28;37.76;100551.55;105255;1292;60447;-82
2022/05/24 10:52:46;;;;;;;9.40;2.40;;;;;;;23.28;37.59;100544.58;104828;1292;61929;-83
2022/05/24 10:55:15;;;;;;;9.90;2.40;;;;;;;23.27;37.50;100547.58;105270;1292;72731;-84
2022/05/24 10:57:46;;;;;;;12.70;2.30;;;;;;;23.24;37.53;100546.37;104905;1292;73898;-82
2022/05/24 11:00:20;;;;;;;9.10;2.10;;;;;;;23.24;37.42;100540.10;105727;1285;60550;-82
2022/05/24 11:03:11;;;;;;;5.50;2.10;;;;;;;23.21;37.22;100531.14;106257;1288;60735;-82
2022/05/24 11:05:39;;;;;;;5.70;2.10;;;;;;;23.19;37.21;100535.65;106077;1286;72567;-82
2022/05/24 11:08:41;;;;;;;9.80;2.20;;;;;;;23.17;37.01;100532.56;106124;1286;73268;-83
2022/05/24 11:11:21;;;;;;;5.40;1.90;;;;;;;23.13;36.92;100538.28;105928;1285;61530;-82
2022/05/24 11:13:55;;;;;;;4.90;1.80;;;;;;;23.08;36.95;100535.25;105755;1286;61277;-82
2022/05/24 11:16:27;;;;;;;3.50;2.00;;;;;;;23.03;36.82;100530.27;105841;1286;72756;-82
2022/05/24 11:18:53;;;;;;;6.50;2.00;;;;;;;23.04;36.64;100528.27;105839;1286;72562;-81
2022/05/24 11:21:22;;;;;;;7.90;2.10;;;;;;;23.05;36.89;100520.27;105929;1286;60635;-81
2022/05/24 11:23:58;;;;;;;6.40;2.20;;;;;;;23.08;36.86;100515.71;106044;1285;60384;-81
2022/05/24 11:26:30;;;;;;;6.60;1.90;;;;;;;23.08;37.00;100501.84;107137;1286;72388;-81
2022/05/24 11:28:58;;;;;;;7.10;2.10;;;;;;;23.09;36.92;100498.88;107089;1287;73741;-81
2022/05/24 11:31:44;;;;;;;4.90;2.10;;;;;;;23.10;37.04;100499.70;107338;1286;61108;-83
2022/05/24 11:34:22;;;;;;;5.80;1.90;;;;;;;23.13;37.15;100484.63;105936;1286;60677;-81
2022/05/24 11:37:00;;;;;;;7.90;2.30;;;;;;;23.15;37.15;100480.20;105794;1286;74122;-82
2022/05/24 11:39:29;;;;;;;4.60;2.00;;;;;;;23.14;37.03;100467.83;105859;1286;75127;-81
2022/05/24 11:42:25;;;;;;;5.10;1.90;;;;;;;23.14;37.01;100467.48;106045;1285;60523;-82
2022/05/24 11:44:54;;;;;;;8.50;2.00;;;;;;;23.13;36.91;100467.56;106036;1286;61415;-82
2022/05/24 11:47:35;;;;;;;5.30;2.20;;;;;;;23.12;36.82;100461.52;105477;1289;72747;-82
2022/05/24 11:50:21;;;;;;;13.50;2.70;;;;;;;23.11;36.83;100457.48;106155;1285;73890;-80
2022/05/24 11:52:52;;;;;;;14.30;2.60;;;;;;;23.14;37.04;100451.71;106068;1286;61586;-83
2022/05/24 11:55:55;;;;;;;15.60;3.00;;;;;;;23.16;37.37;100446.15;106208;1286;61489;-83
2022/05/24 11:58:21;;;;;;;24.90;3.30;;;;;;;23.18;37.40;100432.52;105956;1285;72628;-81
2022/05/24 12:01:17;;;;;;;23.50;2.70;;;;;;;23.21;37.71;100429.39;105843;1286;62107;-81
2022/05/24 12:10:21;;;;;;;12.90;2.30;;;;;;;23.29;38.24;100397.13;104663;1298;72831;-82
2022/05/24 12:12:52;;;;;;;24.70;2.90;;;;;;;23.31;38.32;100388.48;104685;1297;61631;-82
2022/05/24 12:15:25;;;;;;;12.90;2.80;;;;;;;23.34;38.37;100374.08;104675;1297;60577;-82
2022/05/24 12:17:53;;;;;;;14.30;2.60;;;;;;;23.34;38.39;100360.35;104658;1298;60383;-81
2022/05/24 12:20:56;;;;;;;9.90;2.30;;;;;;;23.36;38.51;100346.06;104752;1297;72823;-82
2022/05/24 12:23:31;;;;;;;8.50;2.30;;;;;;;23.36;38.60;100342.41;105691;1302;75104;-82